createdAt,value
2023-01-29T00:00:21.279Z,-1.95
2023-01-29T00:02:48.136Z,-1.87
2023-01-29T00:05:27.113Z,-1.82
2023-01-29T00:08:01.982Z,-1.79
2023-01-29T00:10:28.537Z,-1.78
2023-01-29T00:12:55.256Z,-1.80
2023-01-29T00:15:21.875Z,-1.82
2023-01-29T00:17:48.437Z,-1.76
2023-01-29T00:20:15.928Z,-1.94
2023-01-29T00:22:42.681Z,-1.93
2023-01-29T00:25:09.567Z,-1.90
2023-01-29T00:27:36.225Z,-1.83
2023-01-29T00:30:12.962Z,-2.00
2023-01-29T00:32:40.478Z,-2.14
2023-01-29T00:35:08.353Z,-2.20
2023-01-29T00:37:35.438Z,-2.18
2023-01-29T00:40:02.027Z,-2.32
2023-01-29T00:42:47.126Z,-2.37
2023-01-29T00:45:14.134Z,-2.36
2023-01-29T00:47:41.018Z,-2.22
2023-01-29T00:50:10.502Z,-2.13
2023-01-29T00:52:38.502Z,-2.10
2023-01-29T00:55:06.298Z,-2.17
2023-01-29T00:57:34.286Z,-2.13
2023-01-29T01:00:01.633Z,-2.13
2023-01-29T01:02:46.944Z,-2.10
2023-01-29T01:05:18.330Z,-2.24
2023-01-29T01:07:56.332Z,-2.23
2023-01-29T01:10:32.415Z,-2.22
2023-01-29T01:13:07.010Z,-2.25
2023-01-29T01:15:36.615Z,-2.40
2023-01-29T01:18:04.034Z,-2.46
2023-01-29T01:20:34.013Z,-2.31
2023-01-29T01:23:00.786Z,-2.28
2023-01-29T01:25:27.605Z,-2.34
2023-01-29T01:27:56.299Z,-2.18
2023-01-29T01:30:24.260Z,-2.13
2023-01-29T01:32:51.256Z,-2.21
2023-01-29T01:35:18.304Z,-2.35
2023-01-29T01:37:44.874Z,-2.25
2023-01-29T01:40:21.490Z,-2.25
2023-01-29T01:42:58.875Z,-2.26
2023-01-29T01:45:32.648Z,-2.36
2023-01-29T01:48:26.236Z,-2.24
2023-01-29T01:51:00.753Z,-2.31
2023-01-29T01:53:35.080Z,-2.71
2023-01-29T01:56:06.609Z,-2.70
2023-01-29T01:58:38.195Z,-2.50
2023-01-29T02:01:07.908Z,-2.46
2023-01-29T02:04:08.956Z,-2.53
2023-01-29T02:06:57.582Z,-2.54
2023-01-29T02:09:33.413Z,-2.37
2023-01-29T02:12:01.154Z,-2.29
2023-01-29T02:14:28.049Z,-2.40
2023-01-29T02:16:54.986Z,-2.39
2023-01-29T02:19:52.352Z,-2.55
2023-01-29T02:22:40.423Z,-2.49
2023-01-29T02:25:31.829Z,-2.46
2023-01-29T02:28:21.554Z,-2.46
2023-01-29T02:30:57.166Z,-2.40
2023-01-29T02:33:53.853Z,-2.66
2023-01-29T02:36:40.904Z,-2.49
2023-01-29T02:39:32.476Z,-2.37
2023-01-29T02:42:11.790Z,-2.45
2023-01-29T02:44:38.787Z,-2.64
2023-01-29T02:47:25.574Z,-2.58
2023-01-29T02:50:03.249Z,-2.51
2023-01-29T02:52:40.217Z,-2.44
2023-01-29T02:55:13.559Z,-2.32
2023-01-29T02:57:44.475Z,-2.35
2023-01-29T03:00:11.185Z,-2.52
2023-01-29T03:03:02.784Z,-2.63
2023-01-29T03:05:43.477Z,-2.75
2023-01-29T03:08:15.701Z,-3.00
2023-01-29T03:10:57.487Z,-3.03
2023-01-29T03:13:38.469Z,-3.01
2023-01-29T03:16:19.043Z,-3.01
2023-01-29T03:18:52.081Z,-2.95
2023-01-29T03:21:49.929Z,-2.89
2023-01-29T03:24:54.614Z,-2.82
2023-01-29T03:27:46.282Z,-2.93
2023-01-29T03:30:35.478Z,-2.86
2023-01-29T03:33:26.237Z,-3.05
2023-01-29T03:36:02.747Z,-3.11
2023-01-29T03:38:32.172Z,-2.95
2023-01-29T03:41:36.778Z,-2.90
2023-01-29T03:44:28.157Z,-2.82
2023-01-29T03:47:21.023Z,-2.78
2023-01-29T03:50:24.821Z,-2.73
2023-01-29T03:53:00.220Z,-2.85
2023-01-29T03:56:07.212Z,-2.97
2023-01-29T03:58:45.711Z,-2.88
2023-01-29T04:01:38.963Z,-2.79
2023-01-29T04:04:14.092Z,-2.72
2023-01-29T04:06:45.670Z,-2.63
2023-01-29T04:09:27.772Z,-2.64
2023-01-29T04:12:02.025Z,-2.68
2023-01-29T04:14:31.860Z,-2.62
2023-01-29T04:17:02.837Z,-2.60
2023-01-29T04:19:41.971Z,-2.53
2023-01-29T04:22:19.981Z,-2.63
2023-01-29T04:24:49.065Z,-2.78
2023-01-29T04:27:23.713Z,-2.75
2023-01-29T04:30:04.425Z,-2.72
2023-01-29T04:32:46.745Z,-2.77
2023-01-29T04:35:31.600Z,-2.79
2023-01-29T04:38:12.850Z,-2.80
2023-01-29T04:40:51.102Z,-2.80
2023-01-29T04:43:37.176Z,-2.85
2023-01-29T04:46:18.326Z,-2.77
2023-01-29T04:49:01.589Z,-2.92
2023-01-29T04:51:55.719Z,-2.95
2023-01-29T04:54:28.537Z,-2.80
2023-01-29T04:56:55.017Z,-2.74
2023-01-29T04:59:50.951Z,-2.67
2023-01-29T05:02:19.515Z,-2.78
2023-01-29T05:04:48.247Z,-2.75
2023-01-29T05:07:17.339Z,-2.75
2023-01-29T05:09:46.575Z,-2.69
2023-01-29T05:12:15.772Z,-2.77
2023-01-29T05:14:45.240Z,-2.97
2023-01-29T05:17:18.524Z,-3.08
2023-01-29T05:19:46.005Z,-2.98
2023-01-29T05:22:15.792Z,-2.82
2023-01-29T05:24:42.456Z,-2.69
2023-01-29T05:27:36.874Z,-2.73
2023-01-29T05:30:04.332Z,-2.70
2023-01-29T05:32:31.113Z,-2.60
2023-01-29T05:34:57.884Z,-2.53
2023-01-29T05:37:24.508Z,-2.52
2023-01-29T05:39:51.130Z,-2.62
2023-01-29T05:42:17.781Z,-2.75
2023-01-29T05:44:44.386Z,-2.66
2023-01-29T05:47:11.037Z,-2.84
2023-01-29T05:49:38.785Z,-2.80
2023-01-29T05:52:05.525Z,-2.80
2023-01-29T05:54:32.107Z,-2.88
2023-01-29T05:56:58.656Z,-2.92
2023-01-29T05:59:25.274Z,-2.88
2023-01-29T06:01:51.812Z,-2.80
2023-01-29T06:04:18.402Z,-2.69
2023-01-29T06:06:44.931Z,-2.64
2023-01-29T06:09:11.895Z,-2.73
2023-01-29T06:11:38.457Z,-2.78
2023-01-29T06:14:05.343Z,-2.71
2023-01-29T06:16:32.027Z,-2.76
2023-01-29T06:18:58.610Z,-2.78
2023-01-29T06:21:25.177Z,-2.84
2023-01-29T06:23:54.958Z,-2.79
2023-01-29T06:26:21.536Z,-2.93
2023-01-29T06:28:51.215Z,-3.05
2023-01-29T06:31:37.713Z,-3.00
2023-01-29T06:34:05.289Z,-2.95
2023-01-29T06:36:31.835Z,-2.96
2023-01-29T06:38:58.395Z,-3.02
2023-01-29T06:41:25.655Z,-2.99
2023-01-29T06:43:54.291Z,-2.90
2023-01-29T06:46:20.885Z,-2.84
2023-01-29T06:48:47.677Z,-2.92
2023-01-29T06:51:14.346Z,-2.98
2023-01-29T06:53:41.762Z,-3.05
2023-01-29T06:56:09.356Z,-3.03
2023-01-29T06:58:39.215Z,-2.94
2023-01-29T07:01:17.381Z,-2.91
2023-01-29T07:03:52.093Z,-2.86
2023-01-29T07:06:19.319Z,-2.71
2023-01-29T07:08:45.888Z,-2.63
2023-01-29T07:11:12.583Z,-2.60
2023-01-29T07:13:39.240Z,-2.70
2023-01-29T07:16:07.076Z,-3.19
2023-01-29T07:18:33.677Z,-3.09
2023-01-29T07:21:04.341Z,-2.98
2023-01-29T07:23:30.939Z,-2.83
2023-01-29T07:26:01.137Z,-2.70
2023-01-29T07:28:28.072Z,-2.69
2023-01-29T07:30:59.252Z,-2.66
2023-01-29T07:33:25.912Z,-2.53
2023-01-29T07:35:53.120Z,-2.51
2023-01-29T07:38:20.191Z,-2.39
2023-01-29T07:40:47.039Z,-2.43
2023-01-29T07:43:13.939Z,-2.43
2023-01-29T07:45:40.704Z,-2.45
2023-01-29T07:48:11.247Z,-2.48
2023-01-29T07:50:38.433Z,-2.52
2023-01-29T07:53:05.038Z,-2.55
2023-01-29T07:55:33.044Z,-2.48
2023-01-29T07:58:01.579Z,-2.34
2023-01-29T08:00:29.186Z,-2.25
2023-01-29T08:03:02.763Z,-2.28
2023-01-29T08:05:29.490Z,-2.14
2023-01-29T08:08:06.027Z,-2.06
2023-01-29T08:10:34.754Z,-2.07
2023-01-29T08:13:02.653Z,-2.14
2023-01-29T08:15:30.180Z,-2.00
2023-01-29T08:17:58.215Z,-2.05
2023-01-29T08:20:25.598Z,-1.85
2023-01-29T08:23:00.170Z,-1.75
2023-01-29T08:25:27.540Z,-1.92
2023-01-29T08:27:55.817Z,-1.86
2023-01-29T08:30:22.419Z,-1.77
2023-01-29T08:32:49.005Z,-1.58
2023-01-29T08:35:15.619Z,-1.58
2023-01-29T08:37:42.184Z,-1.64
2023-01-29T08:40:10.903Z,-1.65
2023-01-29T08:42:37.510Z,-1.57
2023-01-29T08:45:04.849Z,-1.63
2023-01-29T08:47:31.425Z,-1.77
2023-01-29T08:49:57.970Z,-1.85
2023-01-29T08:52:24.747Z,-2.12
2023-01-29T08:54:51.300Z,-2.18
2023-01-29T08:57:17.839Z,-2.18
2023-01-29T08:59:44.439Z,-2.05
2023-01-29T09:02:11.959Z,-1.98
2023-01-29T09:04:38.530Z,-1.91
2023-01-29T09:07:05.108Z,-1.91
2023-01-29T09:09:31.649Z,-1.90
2023-01-29T09:11:58.190Z,-1.83
2023-01-29T09:14:24.870Z,-1.79
2023-01-29T09:16:51.491Z,-1.74
2023-01-29T09:19:18.333Z,-1.64
2023-01-29T09:21:45.980Z,-1.58
2023-01-29T09:24:12.573Z,-1.66
2023-01-29T09:26:40.186Z,-1.66
2023-01-29T09:29:07.172Z,-1.49
2023-01-29T09:31:34.126Z,-1.45
2023-01-29T09:34:00.930Z,-1.63
2023-01-29T09:36:27.481Z,-1.49
2023-01-29T09:38:54.035Z,-1.33
2023-01-29T09:41:27.428Z,-1.28
2023-01-29T09:44:02.110Z,-1.10
2023-01-29T09:46:41.084Z,-1.13
2023-01-29T09:49:15.624Z,-1.12
2023-01-29T09:51:46.592Z,-1.05
2023-01-29T09:54:31.989Z,-0.97
2023-01-29T09:56:58.789Z,-1.13
2023-01-29T09:59:29.883Z,-1.08
2023-01-29T10:02:33.827Z,-0.95
2023-01-29T10:05:25.591Z,-1.02
2023-01-29T10:08:05.316Z,-0.96
2023-01-29T10:10:51.484Z,-0.69
2023-01-29T10:13:46.408Z,-0.53
2023-01-29T10:16:34.595Z,-0.47
2023-01-29T10:19:12.856Z,-0.47
2023-01-29T10:22:01.066Z,-0.38
2023-01-29T10:24:39.248Z,-0.39
2023-01-29T10:27:14.409Z,-0.10
2023-01-29T10:29:43.243Z,0.09
2023-01-29T10:32:16.641Z,0.20
2023-01-29T10:34:49.766Z,0.07
2023-01-29T10:37:21.580Z,0.34
2023-01-29T10:39:48.084Z,0.61
2023-01-29T10:42:30.974Z,0.83
2023-01-29T10:45:23.186Z,0.78
2023-01-29T10:48:08.557Z,0.62
2023-01-29T10:51:01.862Z,0.68
2023-01-29T10:53:52.823Z,1.11
2023-01-29T10:56:40.308Z,1.41
2023-01-29T10:59:37.516Z,1.16
2023-01-29T11:02:15.279Z,0.65
2023-01-29T11:04:41.838Z,0.39
2023-01-29T11:07:08.749Z,0.68
2023-01-29T11:09:44.101Z,0.75
2023-01-29T11:12:16.699Z,0.89
2023-01-29T11:14:52.835Z,1.15
2023-01-29T11:17:24.786Z,1.14
2023-01-29T11:19:53.248Z,1.33
2023-01-29T11:22:27.867Z,1.19
2023-01-29T11:25:32.500Z,1.14
2023-01-29T11:28:01.820Z,0.94
2023-01-29T11:30:37.220Z,0.89
2023-01-29T11:33:23.590Z,1.19
2023-01-29T11:35:52.593Z,1.20
2023-01-29T11:38:24.069Z,1.35
2023-01-29T11:40:51.425Z,1.33
2023-01-29T11:43:31.109Z,1.16
2023-01-29T11:46:02.794Z,1.12
2023-01-29T11:48:40.641Z,1.12
2023-01-29T11:51:09.920Z,1.36
2023-01-29T11:53:38.041Z,1.51
2023-01-29T11:56:17.223Z,1.54
2023-01-29T11:58:45.861Z,1.71
2023-01-29T12:01:16.712Z,1.65
2023-01-29T12:03:54.948Z,1.65
2023-01-29T12:06:33.097Z,1.35
2023-01-29T12:09:02.493Z,1.32
2023-01-29T12:11:31.763Z,1.67
2023-01-29T12:14:04.283Z,1.90
2023-01-29T12:16:49.715Z,2.12
2023-01-29T12:19:57.170Z,2.44
2023-01-29T12:22:33.397Z,2.42
2023-01-29T12:25:22.269Z,2.59
2023-01-29T12:28:09.467Z,2.33
2023-01-29T12:31:10.155Z,2.44
2023-01-29T12:34:15.366Z,2.67
2023-01-29T12:36:59.502Z,3.02
2023-01-29T12:39:26.351Z,3.37
2023-01-29T12:42:09.446Z,3.45
2023-01-29T12:44:45.052Z,3.65
2023-01-29T12:47:19.047Z,3.82
2023-01-29T12:49:51.332Z,3.72
2023-01-29T12:52:38.013Z,3.91
2023-01-29T12:55:16.425Z,3.89
2023-01-29T12:57:51.827Z,3.79
2023-01-29T13:00:22.944Z,3.46
2023-01-29T13:02:59.539Z,3.01
2023-01-29T13:05:38.535Z,2.70
2023-01-29T13:08:14.529Z,2.29
2023-01-29T13:10:45.370Z,2.08
2023-01-29T13:13:33.089Z,2.09
2023-01-29T13:16:01.265Z,2.41
2023-01-29T13:18:47.901Z,2.59
2023-01-29T13:21:25.123Z,2.80
2023-01-29T13:23:56.326Z,3.11
2023-01-29T13:26:23.380Z,3.20
2023-01-29T13:28:51.809Z,2.99
2023-01-29T13:31:28.599Z,2.89
2023-01-29T13:34:15.251Z,2.87
2023-01-29T13:36:48.595Z,2.86
2023-01-29T13:39:44.509Z,2.80
2023-01-29T13:42:24.995Z,2.77
2023-01-29T13:44:55.393Z,2.56
2023-01-29T13:47:34.359Z,2.40
2023-01-29T13:50:25.831Z,2.70
2023-01-29T13:52:54.362Z,2.60
2023-01-29T13:55:30.957Z,2.43
2023-01-29T13:57:59.801Z,2.31
2023-01-29T14:00:35.169Z,2.56
2023-01-29T14:03:01.693Z,2.42
2023-01-29T14:05:31.072Z,2.14
2023-01-29T14:08:09.935Z,1.84
2023-01-29T14:10:41.668Z,1.62
2023-01-29T14:13:11.354Z,1.51
2023-01-29T14:15:41.668Z,1.58
2023-01-29T14:18:08.274Z,1.60
2023-01-29T14:20:45.987Z,1.37
2023-01-29T14:23:40.390Z,1.08
2023-01-29T14:26:26.126Z,0.80
2023-01-29T14:29:03.120Z,0.62
2023-01-29T14:31:35.441Z,0.81
2023-01-29T14:34:14.813Z,0.93
2023-01-29T14:36:43.280Z,0.96
2023-01-29T14:39:29.608Z,1.03
2023-01-29T14:41:59.926Z,1.15
2023-01-29T14:44:47.062Z,1.06
2023-01-29T14:47:49.285Z,0.97
2023-01-29T14:50:18.783Z,0.92
2023-01-29T14:52:48.021Z,0.88
2023-01-29T14:55:31.271Z,0.62
2023-01-29T14:57:59.222Z,0.51
2023-01-29T15:00:34.377Z,0.48
2023-01-29T15:03:04.240Z,0.37
2023-01-29T15:05:36.163Z,0.36
2023-01-29T15:08:30.016Z,0.25
2023-01-29T15:11:19.106Z,0.06
2023-01-29T15:13:52.128Z,0.04
2023-01-29T15:16:32.457Z,0.01
2023-01-29T15:19:13.527Z,-0.17
2023-01-29T15:21:40.094Z,-0.22
2023-01-29T15:24:07.355Z,-0.30
2023-01-29T15:26:36.519Z,-0.32
2023-01-29T15:29:04.867Z,-0.44
2023-01-29T15:31:32.233Z,-0.67
2023-01-29T15:34:04.907Z,-0.77
2023-01-29T15:36:32.905Z,-0.82
2023-01-29T15:39:23.395Z,-0.81
2023-01-29T15:42:06.913Z,-0.87
2023-01-29T15:44:34.730Z,-0.85
2023-01-29T15:47:02.128Z,-0.85
2023-01-29T15:49:35.275Z,-1.11
2023-01-29T15:52:16.706Z,-1.05
2023-01-29T15:54:43.679Z,-1.11
2023-01-29T15:57:20.421Z,-1.16
2023-01-29T15:59:51.751Z,-1.17
2023-01-29T16:02:37.634Z,-1.29
2023-01-29T16:05:14.077Z,-1.36
2023-01-29T16:07:41.821Z,-1.36
2023-01-29T16:10:17.476Z,-1.38
2023-01-29T16:12:47.415Z,-1.44
2023-01-29T16:15:28.000Z,-1.48
2023-01-29T16:17:54.585Z,-1.53
2023-01-29T16:20:34.827Z,-1.58
2023-01-29T16:23:01.427Z,-1.69
2023-01-29T16:25:29.348Z,-1.73
2023-01-29T16:27:56.665Z,-1.77
2023-01-29T16:30:27.671Z,-1.82
2023-01-29T16:33:01.846Z,-1.87
2023-01-29T16:35:28.548Z,-1.94
2023-01-29T16:38:02.660Z,-2.00
2023-01-29T16:40:33.198Z,-2.05
2023-01-29T16:43:45.574Z,-2.13
2023-01-29T16:46:34.473Z,-2.22
2023-01-29T16:49:01.759Z,-2.24
2023-01-29T16:51:30.172Z,-2.32
2023-01-29T16:54:18.364Z,-2.36
2023-01-29T16:56:46.683Z,-2.45
2023-01-29T16:59:20.537Z,-2.52
2023-01-29T17:01:49.576Z,-2.54
2023-01-29T17:04:18.372Z,-2.61
2023-01-29T17:06:48.596Z,-2.64
2023-01-29T17:09:27.113Z,-2.72
2023-01-29T17:11:56.613Z,-2.74
2023-01-29T17:14:26.104Z,-2.79
2023-01-29T17:17:04.126Z,-2.84
2023-01-29T17:19:31.256Z,-2.89
2023-01-29T17:22:01.163Z,-2.98
2023-01-29T17:24:34.107Z,-3.01
2023-01-29T17:27:01.872Z,-2.95
2023-01-29T17:29:30.561Z,-2.99
2023-01-29T17:31:59.945Z,-3.01
2023-01-29T17:34:26.758Z,-3.15
2023-01-29T17:36:53.301Z,-3.10
2023-01-29T17:39:22.643Z,-3.23
2023-01-29T17:41:54.979Z,-3.32
2023-01-29T17:44:22.314Z,-3.31
2023-01-29T17:46:49.476Z,-3.29
2023-01-29T17:49:26.119Z,-3.38
2023-01-29T17:51:54.186Z,-3.35
2023-01-29T17:57:15.557Z,-3.46
2023-01-29T17:59:45.594Z,-3.58
2023-01-29T18:02:28.993Z,-3.50
2023-01-29T18:04:56.484Z,-3.62
2023-01-29T18:07:23.087Z,-3.66
2023-01-29T18:09:49.701Z,-3.63
2023-01-29T18:12:16.261Z,-3.72
2023-01-29T18:14:42.880Z,-3.75
2023-01-29T18:17:13.605Z,-3.74
2023-01-29T18:19:42.759Z,-3.80
2023-01-29T18:22:17.333Z,-3.85
2023-01-29T18:24:44.275Z,-3.87
2023-01-29T18:27:11.625Z,-3.88
2023-01-29T18:29:38.496Z,-3.88
2023-01-29T18:32:05.649Z,-3.82
2023-01-29T18:34:32.474Z,-3.83
2023-01-29T18:37:00.272Z,-3.89
2023-01-29T18:39:27.018Z,-4.02
2023-01-29T18:41:53.963Z,-4.11
2023-01-29T18:44:20.726Z,-4.10
2023-01-29T18:46:47.611Z,-4.11
2023-01-29T18:49:16.857Z,-4.13
2023-01-29T18:51:43.774Z,-4.15
2023-01-29T18:54:13.196Z,-4.15
2023-01-29T18:57:13.105Z,-4.19
2023-01-29T18:59:26.563Z,-4.15
2023-01-29T19:01:53.409Z,-4.11
2023-01-29T19:04:20.249Z,-4.18
2023-01-29T19:06:47.073Z,-4.27
2023-01-29T19:09:13.759Z,-4.35
2023-01-29T19:11:40.520Z,-4.34
2023-01-29T19:14:07.282Z,-4.36
2023-01-29T19:16:34.030Z,-4.38
2023-01-29T19:19:00.892Z,-4.41
2023-01-29T19:21:28.458Z,-4.41
2023-01-29T19:23:55.404Z,-4.44
2023-01-29T19:26:22.243Z,-4.50
2023-01-29T19:28:49.182Z,-4.48
2023-01-29T19:31:16.049Z,-4.51
2023-01-29T19:33:42.824Z,-4.53
2023-01-29T19:36:09.741Z,-4.61
2023-01-29T19:38:38.796Z,-4.60
2023-01-29T19:41:05.739Z,-4.67
2023-01-29T19:43:32.702Z,-4.70
2023-01-29T19:46:00.477Z,-4.58
2023-01-29T19:48:28.052Z,-4.59
2023-01-29T19:51:09.385Z,-4.64
2023-01-29T19:53:38.277Z,-4.80
2023-01-29T19:56:14.875Z,-4.78
2023-01-29T19:58:41.669Z,-4.86
2023-01-29T20:01:14.466Z,-4.80
2023-01-29T20:03:42.187Z,-4.85
2023-01-29T20:06:09.512Z,-4.90
2023-01-29T20:08:36.483Z,-4.92
2023-01-29T20:11:05.477Z,-4.92
2023-01-29T20:13:33.155Z,-4.88
2023-01-29T20:16:03.929Z,-4.94
2023-01-29T20:18:31.496Z,-4.95
2023-01-29T20:20:58.844Z,-4.95
2023-01-29T20:23:37.207Z,-5.05
2023-01-29T20:26:06.275Z,-5.05
2023-01-29T20:28:33.288Z,-5.07
2023-01-29T20:31:00.480Z,-5.13
2023-01-29T20:33:27.320Z,-5.16
2023-01-29T20:35:59.685Z,-5.19
2023-01-29T20:38:31.838Z,-5.17
2023-01-29T20:41:04.933Z,-5.19
2023-01-29T20:43:32.308Z,-5.23
2023-01-29T20:45:59.490Z,-5.27
2023-01-29T20:48:26.778Z,-5.30
2023-01-29T20:50:54.404Z,-5.28
2023-01-29T20:53:21.189Z,-5.26
2023-01-29T20:55:48.061Z,-5.31
2023-01-29T20:58:15.238Z,-5.26
2023-01-29T21:00:41.965Z,-5.29
2023-01-29T21:03:09.080Z,-5.31
2023-01-29T21:05:35.742Z,-5.29
2023-01-29T21:08:02.622Z,-5.28
2023-01-29T21:10:29.312Z,-5.38
2023-01-29T21:12:55.990Z,-5.51
2023-01-29T21:15:24.684Z,-5.50
2023-01-29T21:17:52.430Z,-5.46
2023-01-29T21:20:19.492Z,-5.43
2023-01-29T21:22:49.016Z,-5.38
2023-01-29T21:25:15.985Z,-5.31
2023-01-29T21:27:42.721Z,-5.42
2023-01-29T21:30:10.181Z,-5.48
2023-01-29T21:32:36.853Z,-5.50
2023-01-29T21:35:03.912Z,-5.39
2023-01-29T21:37:30.625Z,-5.41
2023-01-29T21:39:57.317Z,-5.48
2023-01-29T21:42:42.498Z,-5.52
2023-01-29T21:45:09.769Z,-5.54
2023-01-29T21:47:36.513Z,-5.62
2023-01-29T21:50:03.405Z,-5.64
2023-01-29T21:52:30.153Z,-5.69
2023-01-29T21:54:57.047Z,-5.67
2023-01-29T21:57:26.562Z,-5.63
2023-01-29T21:59:54.144Z,-5.65
2023-01-29T22:02:22.517Z,-5.65
2023-01-29T22:04:50.381Z,-5.66
2023-01-29T22:07:17.089Z,-5.67
2023-01-29T22:09:44.139Z,-5.63
2023-01-29T22:12:11.274Z,-5.66
2023-01-29T22:14:37.946Z,-5.65
2023-01-29T22:17:04.976Z,-5.66
2023-01-29T22:19:31.921Z,-5.56
2023-01-29T22:21:58.616Z,-5.53
2023-01-29T22:24:25.385Z,-5.58
2023-01-29T22:26:52.107Z,-5.68
2023-01-29T22:29:19.604Z,-5.79
2023-01-29T22:31:46.880Z,-5.73
2023-01-29T22:34:14.798Z,-5.75
2023-01-29T22:36:41.454Z,-5.78
2023-01-29T22:39:08.757Z,-5.73
2023-01-29T22:41:36.188Z,-5.74
2023-01-29T22:44:03.454Z,-5.85
2023-01-29T22:46:30.319Z,-5.84
2023-01-29T22:48:57.284Z,-5.85
2023-01-29T22:51:23.983Z,-5.85
2023-01-29T22:53:53.038Z,-5.84
2023-01-29T22:56:22.098Z,-5.86
2023-01-29T22:58:53.721Z,-5.84
2023-01-29T23:01:22.457Z,-5.90
2023-01-29T23:03:49.159Z,-5.89
2023-01-29T23:06:17.197Z,-5.93
2023-01-29T23:08:44.055Z,-5.91
2023-01-29T23:11:18.598Z,-5.91
2023-01-29T23:13:52.849Z,-5.88
2023-01-29T23:16:22.098Z,-5.90
2023-01-29T23:18:56.801Z,-5.84
2023-01-29T23:21:25.115Z,-5.88
2023-01-29T23:23:52.517Z,-5.95
2023-01-29T23:26:37.751Z,-5.91
2023-01-29T23:29:04.502Z,-5.97
2023-01-29T23:31:32.035Z,-6.00
2023-01-29T23:33:58.767Z,-6.03
2023-01-29T23:36:25.569Z,-6.03
2023-01-29T23:38:52.229Z,-5.94
2023-01-29T23:41:18.910Z,-5.91
2023-01-29T23:43:45.651Z,-5.93
2023-01-29T23:46:12.484Z,-5.92
2023-01-29T23:48:39.169Z,-5.98
2023-01-29T23:51:05.998Z,-5.94
2023-01-29T23:53:32.672Z,-6.02
2023-01-29T23:56:04.157Z,-6.10
2023-01-29T23:58:32.393Z,-6.11
